sensor_id;sensor_type;location;lat;lon;timestamp;P1;durP1;ratioP1;P2;durP2;ratioP2
15153;SDS011;7677;41.896;25.004;2023-08-20T00:01:21;5.68;;;4.60;;
15153;SDS011;7677;41.896;25.004;2023-08-20T00:03:50;6.30;;;5.20;;
15153;SDS011;7677;41.896;25.004;2023-08-20T00:06:18;5.60;;;4.90;;
15153;SDS011;7677;41.896;25.004;2023-08-20T00:08:46;5.45;;;4.63;;
15153;SDS011;7677;41.896;25.004;2023-08-20T00:11:15;7.00;;;4.80;;
15153;SDS011;7677;41.896;25.004;2023-08-20T00:13:42;7.68;;;5.35;;
15153;SDS011;7677;41.896;25.004;2023-08-20T00:16:09;6.50;;;5.47;;
15153;SDS011;7677;41.896;25.004;2023-08-20T00:18:37;6.63;;;4.90;;
15153;SDS011;7677;41.896;25.004;2023-08-20T00:21:05;5.88;;;5.28;;
15153;SDS011;7677;41.896;25.004;2023-08-20T00:23:33;5.43;;;4.93;;
15153;SDS011;7677;41.896;25.004;2023-08-20T00:26:01;6.45;;;4.70;;
15153;SDS011;7677;41.896;25.004;2023-08-20T00:28:29;5.57;;;5.03;;
15153;SDS011;7677;41.896;25.004;2023-08-20T00:30:58;5.50;;;4.93;;
15153;SDS011;7677;41.896;25.004;2023-08-20T00:33:25;10.32;;;5.50;;
15153;SDS011;7677;41.896;25.004;2023-08-20T00:35:52;5.35;;;4.85;;
15153;SDS011;7677;41.896;25.004;2023-08-20T00:38:19;6.95;;;5.15;;
15153;SDS011;7677;41.896;25.004;2023-08-20T00:40:46;5.72;;;4.75;;
15153;SDS011;7677;41.896;25.004;2023-08-20T00:43:13;5.07;;;4.63;;
15153;SDS011;7677;41.896;25.004;2023-08-20T00:45:42;6.93;;;5.10;;
15153;SDS011;7677;41.896;25.004;2023-08-20T00:48:09;5.07;;;4.57;;
15153;SDS011;7677;41.896;25.004;2023-08-20T00:50:37;5.85;;;5.10;;
15153;SDS011;7677;41.896;25.004;2023-08-20T00:53:05;5.70;;;4.75;;
15153;SDS011;7677;41.896;25.004;2023-08-20T00:55:32;4.95;;;4.22;;
15153;SDS011;7677;41.896;25.004;2023-08-20T00:57:59;5.10;;;4.55;;
15153;SDS011;7677;41.896;25.004;2023-08-20T01:00:26;5.45;;;4.55;;
15153;SDS011;7677;41.896;25.004;2023-08-20T01:02:55;7.00;;;4.65;;
15153;SDS011;7677;41.896;25.004;2023-08-20T01:05:22;8.13;;;4.32;;
15153;SDS011;7677;41.896;25.004;2023-08-20T01:07:54;5.78;;;4.28;;
15153;SDS011;7677;41.896;25.004;2023-08-20T01:10:29;5.20;;;4.53;;
15153;SDS011;7677;41.896;25.004;2023-08-20T01:12:59;4.45;;;4.05;;
15153;SDS011;7677;41.896;25.004;2023-08-20T01:15:27;5.60;;;4.60;;
15153;SDS011;7677;41.896;25.004;2023-08-20T01:17:55;4.85;;;4.32;;
15153;SDS011;7677;41.896;25.004;2023-08-20T01:20:22;5.13;;;4.65;;
15153;SDS011;7677;41.896;25.004;2023-08-20T01:26:04;7.28;;;4.22;;
15153;SDS011;7677;41.896;25.004;2023-08-20T01:28:36;4.60;;;4.20;;
15153;SDS011;7677;41.896;25.004;2023-08-20T01:31:04;7.03;;;4.43;;
15153;SDS011;7677;41.896;25.004;2023-08-20T01:33:31;7.00;;;4.55;;
15153;SDS011;7677;41.896;25.004;2023-08-20T01:35:59;5.47;;;4.65;;
15153;SDS011;7677;41.896;25.004;2023-08-20T01:38:26;5.57;;;4.95;;
15153;SDS011;7677;41.896;25.004;2023-08-20T01:40:53;5.00;;;4.43;;
15153;SDS011;7677;41.896;25.004;2023-08-20T01:43:21;5.60;;;4.88;;
15153;SDS011;7677;41.896;25.004;2023-08-20T01:45:49;6.20;;;4.32;;
15153;SDS011;7677;41.896;25.004;2023-08-20T01:48:16;5.30;;;4.80;;
15153;SDS011;7677;41.896;25.004;2023-08-20T01:50:43;6.38;;;4.82;;
15153;SDS011;7677;41.896;25.004;2023-08-20T01:53:11;8.18;;;4.85;;
15153;SDS011;7677;41.896;25.004;2023-08-20T01:55:38;6.50;;;4.47;;
15153;SDS011;7677;41.896;25.004;2023-08-20T01:58:05;6.72;;;4.10;;
15153;SDS011;7677;41.896;25.004;2023-08-20T02:00:32;4.75;;;4.35;;
15153;SDS011;7677;41.896;25.004;2023-08-20T02:03:00;5.60;;;4.47;;
15153;SDS011;7677;41.896;25.004;2023-08-20T02:05:27;6.20;;;5.32;;
15153;SDS011;7677;41.896;25.004;2023-08-20T02:07:54;5.15;;;4.63;;
15153;SDS011;7677;41.896;25.004;2023-08-20T02:10:21;5.50;;;4.85;;
15153;SDS011;7677;41.896;25.004;2023-08-20T02:12:48;5.20;;;4.53;;
15153;SDS011;7677;41.896;25.004;2023-08-20T02:15:15;5.10;;;4.57;;
15153;SDS011;7677;41.896;25.004;2023-08-20T02:17:42;5.97;;;4.80;;
15153;SDS011;7677;41.896;25.004;2023-08-20T02:20:11;5.15;;;4.40;;
15153;SDS011;7677;41.896;25.004;2023-08-20T02:22:38;4.93;;;4.30;;
15153;SDS011;7677;41.896;25.004;2023-08-20T02:25:05;5.18;;;4.63;;
15153;SDS011;7677;41.896;25.004;2023-08-20T02:27:32;5.43;;;4.13;;
15153;SDS011;7677;41.896;25.004;2023-08-20T02:29:59;7.05;;;4.47;;
15153;SDS011;7677;41.896;25.004;2023-08-20T02:32:26;5.10;;;4.60;;
15153;SDS011;7677;41.896;25.004;2023-08-20T02:34:53;6.38;;;4.70;;
15153;SDS011;7677;41.896;25.004;2023-08-20T02:37:22;5.63;;;5.03;;
15153;SDS011;7677;41.896;25.004;2023-08-20T02:39:49;8.13;;;5.05;;
15153;SDS011;7677;41.896;25.004;2023-08-20T02:42:16;6.50;;;4.85;;
15153;SDS011;7677;41.896;25.004;2023-08-20T02:44:43;4.53;;;4.13;;
15153;SDS011;7677;41.896;25.004;2023-08-20T02:47:10;5.20;;;4.70;;
15153;SDS011;7677;41.896;25.004;2023-08-20T02:49:37;8.95;;;5.00;;
15153;SDS011;7677;41.896;25.004;2023-08-20T02:52:04;5.30;;;4.57;;
15153;SDS011;7677;41.896;25.004;2023-08-20T02:54:32;6.20;;;5.30;;
15153;SDS011;7677;41.896;25.004;2023-08-20T02:56:59;6.30;;;4.57;;
15153;SDS011;7677;41.896;25.004;2023-08-20T02:59:26;5.95;;;5.13;;
15153;SDS011;7677;41.896;25.004;2023-08-20T03:01:53;7.03;;;5.60;;
15153;SDS011;7677;41.896;25.004;2023-08-20T03:04:20;5.75;;;5.22;;
15153;SDS011;7677;41.896;25.004;2023-08-20T03:06:47;5.68;;;4.72;;
15153;SDS011;7677;41.896;25.004;2023-08-20T03:09:14;6.80;;;5.38;;
15153;SDS011;7677;41.896;25.004;2023-08-20T03:11:42;5.90;;;5.25;;
15153;SDS011;7677;41.896;25.004;2023-08-20T03:14:10;5.72;;;5.18;;
15153;SDS011;7677;41.896;25.004;2023-08-20T03:16:36;6.93;;;5.05;;
15153;SDS011;7677;41.896;25.004;2023-08-20T03:19:04;5.57;;;5.00;;
15153;SDS011;7677;41.896;25.004;2023-08-20T03:21:31;6.45;;;5.55;;
15153;SDS011;7677;41.896;25.004;2023-08-20T03:23:58;5.72;;;4.57;;
15153;SDS011;7677;41.896;25.004;2023-08-20T03:26:25;6.18;;;5.57;;
15153;SDS011;7677;41.896;25.004;2023-08-20T03:28:53;6.93;;;5.47;;
15153;SDS011;7677;41.896;25.004;2023-08-20T03:31:20;6.22;;;5.40;;
15153;SDS011;7677;41.896;25.004;2023-08-20T03:33:48;5.70;;;5.10;;
15153;SDS011;7677;41.896;25.004;2023-08-20T03:36:15;5.82;;;5.22;;
15153;SDS011;7677;41.896;25.004;2023-08-20T03:38:42;6.72;;;5.40;;
15153;SDS011;7677;41.896;25.004;2023-08-20T03:41:09;7.65;;;5.90;;
15153;SDS011;7677;41.896;25.004;2023-08-20T03:43:36;6.00;;;5.35;;
15153;SDS011;7677;41.896;25.004;2023-08-20T03:46:04;6.25;;;5.65;;
15153;SDS011;7677;41.896;25.004;2023-08-20T03:48:31;8.23;;;5.55;;
15153;SDS011;7677;41.896;25.004;2023-08-20T03:50:58;6.53;;;5.38;;
15153;SDS011;7677;41.896;25.004;2023-08-20T03:53:25;8.45;;;5.53;;
15153;SDS011;7677;41.896;25.004;2023-08-20T03:55:52;7.13;;;5.30;;
15153;SDS011;7677;41.896;25.004;2023-08-20T03:58:19;6.57;;;5.70;;
15153;SDS011;7677;41.896;25.004;2023-08-20T04:00:46;8.75;;;5.57;;
15153;SDS011;7677;41.896;25.004;2023-08-20T04:03:14;5.55;;;5.00;;
15153;SDS011;7677;41.896;25.004;2023-08-20T04:05:44;6.20;;;5.57;;
15153;SDS011;7677;41.896;25.004;2023-08-20T04:08:11;5.53;;;5.03;;
15153;SDS011;7677;41.896;25.004;2023-08-20T04:10:42;6.32;;;5.72;;
15153;SDS011;7677;41.896;25.004;2023-08-20T04:13:10;5.72;;;5.22;;
15153;SDS011;7677;41.896;25.004;2023-08-20T04:15:39;9.43;;;6.05;;
15153;SDS011;7677;41.896;25.004;2023-08-20T04:18:06;6.60;;;5.35;;
15153;SDS011;7677;41.896;25.004;2023-08-20T04:20:34;6.38;;;5.40;;
15153;SDS011;7677;41.896;25.004;2023-08-20T04:23:02;9.15;;;6.00;;
15153;SDS011;7677;41.896;25.004;2023-08-20T04:25:29;5.70;;;4.82;;
15153;SDS011;7677;41.896;25.004;2023-08-20T04:27:56;6.35;;;5.40;;
15153;SDS011;7677;41.896;25.004;2023-08-20T04:30:23;5.60;;;5.07;;
15153;SDS011;7677;41.896;25.004;2023-08-20T04:32:50;7.90;;;5.43;;
15153;SDS011;7677;41.896;25.004;2023-08-20T04:35:17;5.40;;;4.90;;
15153;SDS011;7677;41.896;25.004;2023-08-20T04:37:46;6.47;;;5.70;;
15153;SDS011;7677;41.896;25.004;2023-08-20T04:40:13;6.40;;;5.80;;
15153;SDS011;7677;41.896;25.004;2023-08-20T04:42:40;7.75;;;5.65;;
15153;SDS011;7677;41.896;25.004;2023-08-20T04:45:07;6.28;;;5.47;;
15153;SDS011;7677;41.896;25.004;2023-08-20T04:47:35;6.60;;;5.90;;
15153;SDS011;7677;41.896;25.004;2023-08-20T04:50:02;6.75;;;5.53;;
15153;SDS011;7677;41.896;25.004;2023-08-20T04:52:31;7.38;;;5.80;;
15153;SDS011;7677;41.896;25.004;2023-08-20T04:55:00;5.95;;;5.35;;
15153;SDS011;7677;41.896;25.004;2023-08-20T04:57:27;6.28;;;5.55;;
15153;SDS011;7677;41.896;25.004;2023-08-20T04:59:54;6.43;;;5.45;;
15153;SDS011;7677;41.896;25.004;2023-08-20T05:02:21;6.78;;;5.78;;
15153;SDS011;7677;41.896;25.004;2023-08-20T05:04:48;6.10;;;5.32;;
15153;SDS011;7677;41.896;25.004;2023-08-20T05:07:15;6.13;;;5.07;;
15153;SDS011;7677;41.896;25.004;2023-08-20T05:09:43;6.40;;;5.75;;
15153;SDS011;7677;41.896;25.004;2023-08-20T05:12:11;6.22;;;5.63;;
15153;SDS011;7677;41.896;25.004;2023-08-20T05:14:38;6.07;;;5.47;;
15153;SDS011;7677;41.896;25.004;2023-08-20T05:17:05;5.93;;;5.30;;
15153;SDS011;7677;41.896;25.004;2023-08-20T05:19:32;6.03;;;5.22;;
15153;SDS011;7677;41.896;25.004;2023-08-20T05:21:59;7.15;;;5.03;;
15153;SDS011;7677;41.896;25.004;2023-08-20T05:24:26;8.23;;;5.38;;
15153;SDS011;7677;41.896;25.004;2023-08-20T05:27:06;5.82;;;5.03;;
15153;SDS011;7677;41.896;25.004;2023-08-20T05:29:36;5.57;;;5.05;;
15153;SDS011;7677;41.896;25.004;2023-08-20T05:32:03;6.32;;;5.50;;
15153;SDS011;7677;41.896;25.004;2023-08-20T05:34:30;6.68;;;5.50;;
15153;SDS011;7677;41.896;25.004;2023-08-20T05:36:58;5.85;;;5.25;;
15153;SDS011;7677;41.896;25.004;2023-08-20T05:39:25;5.82;;;5.22;;
15153;SDS011;7677;41.896;25.004;2023-08-20T05:41:52;6.15;;;5.20;;
15153;SDS011;7677;41.896;25.004;2023-08-20T05:44:19;5.85;;;4.90;;
15153;SDS011;7677;41.896;25.004;2023-08-20T05:46:47;5.88;;;5.18;;
15153;SDS011;7677;41.896;25.004;2023-08-20T05:49:15;5.28;;;4.68;;
15153;SDS011;7677;41.896;25.004;2023-08-20T05:51:42;5.70;;;5.03;;
15153;SDS011;7677;41.896;25.004;2023-08-20T05:54:09;5.47;;;4.97;;
15153;SDS011;7677;41.896;25.004;2023-08-20T05:56:36;5.57;;;5.07;;
15153;SDS011;7677;41.896;25.004;2023-08-20T05:59:03;5.40;;;4.90;;
15153;SDS011;7677;41.896;25.004;2023-08-20T06:01:30;5.75;;;4.95;;
15153;SDS011;7677;41.896;25.004;2023-08-20T06:03:59;6.15;;;4.95;;
15153;SDS011;7677;41.896;25.004;2023-08-20T06:06:26;6.82;;;5.35;;
15153;SDS011;7677;41.896;25.004;2023-08-20T06:08:54;5.47;;;4.90;;
15153;SDS011;7677;41.896;25.004;2023-08-20T06:11:21;6.22;;;5.50;;
15153;SDS011;7677;41.896;25.004;2023-08-20T06:13:48;6.05;;;5.45;;
15153;SDS011;7677;41.896;25.004;2023-08-20T06:16:15;6.05;;;5.40;;
15153;SDS011;7677;41.896;25.004;2023-08-20T06:18:42;6.05;;;5.45;;
15153;SDS011;7677;41.896;25.004;2023-08-20T06:21:10;6.45;;;5.57;;
15153;SDS011;7677;41.896;25.004;2023-08-20T06:23:38;6.00;;;5.30;;
15153;SDS011;7677;41.896;25.004;2023-08-20T06:26:05;5.80;;;4.93;;
15153;SDS011;7677;41.896;25.004;2023-08-20T06:28:32;6.30;;;5.20;;
15153;SDS011;7677;41.896;25.004;2023-08-20T06:30:59;5.93;;;5.32;;
15153;SDS011;7677;41.896;25.004;2023-08-20T06:33:26;6.75;;;5.22;;
15153;SDS011;7677;41.896;25.004;2023-08-20T06:35:53;6.80;;;5.07;;
15153;SDS011;7677;41.896;25.004;2023-08-20T06:38:21;6.55;;;5.35;;
15153;SDS011;7677;41.896;25.004;2023-08-20T06:40:48;5.70;;;5.20;;
15153;SDS011;7677;41.896;25.004;2023-08-20T06:43:16;5.78;;;5.10;;
15153;SDS011;7677;41.896;25.004;2023-08-20T06:45:43;5.88;;;5.13;;
15153;SDS011;7677;41.896;25.004;2023-08-20T06:48:10;7.50;;;5.57;;
15153;SDS011;7677;41.896;25.004;2023-08-20T06:50:37;7.05;;;4.85;;
15153;SDS011;7677;41.896;25.004;2023-08-20T06:53:04;7.07;;;4.80;;
15153;SDS011;7677;41.896;25.004;2023-08-20T06:55:33;7.18;;;4.60;;
15153;SDS011;7677;41.896;25.004;2023-08-20T06:58:00;5.25;;;4.32;;
15153;SDS011;7677;41.896;25.004;2023-08-20T07:00:27;5.38;;;4.88;;
15153;SDS011;7677;41.896;25.004;2023-08-20T07:02:54;5.05;;;4.55;;
15153;SDS011;7677;41.896;25.004;2023-08-20T07:05:21;11.32;;;5.15;;
15153;SDS011;7677;41.896;25.004;2023-08-20T07:07:48;7.95;;;5.18;;
15153;SDS011;7677;41.896;25.004;2023-08-20T07:10:15;7.75;;;4.80;;
15153;SDS011;7677;41.896;25.004;2023-08-20T07:12:44;6.95;;;4.80;;
15153;SDS011;7677;41.896;25.004;2023-08-20T07:15:11;5.20;;;4.05;;
15153;SDS011;7677;41.896;25.004;2023-08-20T07:17:38;5.63;;;5.07;;
15153;SDS011;7677;41.896;25.004;2023-08-20T07:20:05;6.43;;;5.10;;
15153;SDS011;7677;41.896;25.004;2023-08-20T07:22:33;4.88;;;3.85;;
15153;SDS011;7677;41.896;25.004;2023-08-20T07:25:00;5.45;;;4.65;;
15153;SDS011;7677;41.896;25.004;2023-08-20T07:27:27;4.82;;;4.35;;
15153;SDS011;7677;41.896;25.004;2023-08-20T07:29:56;5.38;;;3.78;;
15153;SDS011;7677;41.896;25.004;2023-08-20T07:32:22;5.35;;;4.53;;
15153;SDS011;7677;41.896;25.004;2023-08-20T07:34:49;7.00;;;4.63;;
15153;SDS011;7677;41.896;25.004;2023-08-20T07:37:16;6.18;;;4.70;;
15153;SDS011;7677;41.896;25.004;2023-08-20T07:39:43;5.20;;;4.63;;
15153;SDS011;7677;41.896;25.004;2023-08-20T07:42:10;5.18;;;4.20;;
15153;SDS011;7677;41.896;25.004;2023-08-20T07:44:37;8.38;;;4.38;;
15153;SDS011;7677;41.896;25.004;2023-08-20T07:47:06;7.10;;;4.43;;
15153;SDS011;7677;41.896;25.004;2023-08-20T07:49:33;4.75;;;4.25;;
15153;SDS011;7677;41.896;25.004;2023-08-20T07:52:00;5.57;;;4.30;;
15153;SDS011;7677;41.896;25.004;2023-08-20T07:54:27;4.93;;;4.43;;
15153;SDS011;7677;41.896;25.004;2023-08-20T07:56:54;6.60;;;4.50;;
15153;SDS011;7677;41.896;25.004;2023-08-20T07:59:21;4.35;;;3.85;;
15153;SDS011;7677;41.896;25.004;2023-08-20T08:01:48;5.18;;;4.18;;
15153;SDS011;7677;41.896;25.004;2023-08-20T08:04:17;4.15;;;3.70;;
15153;SDS011;7677;41.896;25.004;2023-08-20T08:06:44;4.13;;;3.83;;
15153;SDS011;7677;41.896;25.004;2023-08-20T08:09:21;4.65;;;4.20;;
15153;SDS011;7677;41.896;25.004;2023-08-20T08:11:52;7.68;;;5.80;;
15153;SDS011;7677;41.896;25.004;2023-08-20T08:14:19;4.20;;;3.80;;
15153;SDS011;7677;41.896;25.004;2023-08-20T08:16:46;4.70;;;4.25;;
15153;SDS011;7677;41.896;25.004;2023-08-20T08:19:14;6.30;;;4.40;;
15153;SDS011;7677;41.896;25.004;2023-08-20T08:21:42;4.53;;;4.13;;
15153;SDS011;7677;41.896;25.004;2023-08-20T08:24:10;4.00;;;3.65;;
15153;SDS011;7677;41.896;25.004;2023-08-20T08:26:38;4.28;;;3.88;;
15153;SDS011;7677;41.896;25.004;2023-08-20T08:29:05;4.70;;;4.07;;
15153;SDS011;7677;41.896;25.004;2023-08-20T08:31:33;4.85;;;4.22;;
15153;SDS011;7677;41.896;25.004;2023-08-20T08:34:00;4.68;;;4.10;;
15153;SDS011;7677;41.896;25.004;2023-08-20T08:36:28;4.68;;;4.20;;
15153;SDS011;7677;41.896;25.004;2023-08-20T08:38:56;4.53;;;3.67;;
15153;SDS011;7677;41.896;25.004;2023-08-20T08:41:23;5.82;;;4.85;;
15153;SDS011;7677;41.896;25.004;2023-08-20T08:43:53;5.28;;;4.07;;
15153;SDS011;7677;41.896;25.004;2023-08-20T08:46:20;5.63;;;4.68;;
15153;SDS011;7677;41.896;25.004;2023-08-20T08:48:48;5.18;;;4.65;;
15153;SDS011;7677;41.896;25.004;2023-08-20T08:51:16;5.75;;;4.90;;
15153;SDS011;7677;41.896;25.004;2023-08-20T08:53:43;8.30;;;4.13;;
15153;SDS011;7677;41.896;25.004;2023-08-20T08:56:11;5.95;;;3.92;;
15153;SDS011;7677;41.896;25.004;2023-08-20T08:58:38;7.90;;;4.57;;
15153;SDS011;7677;41.896;25.004;2023-08-20T09:01:05;5.50;;;4.05;;
15153;SDS011;7677;41.896;25.004;2023-08-20T09:03:32;4.85;;;4.00;;
15153;SDS011;7677;41.896;25.004;2023-08-20T09:06:00;4.97;;;4.30;;
15153;SDS011;7677;41.896;25.004;2023-08-20T09:08:29;4.25;;;3.83;;
15153;SDS011;7677;41.896;25.004;2023-08-20T09:10:57;5.13;;;4.45;;
15153;SDS011;7677;41.896;25.004;2023-08-20T09:13:32;5.00;;;4.50;;
15153;SDS011;7677;41.896;25.004;2023-08-20T09:16:02;5.53;;;4.57;;
15153;SDS011;7677;41.896;25.004;2023-08-20T09:18:30;5.55;;;4.20;;
15153;SDS011;7677;41.896;25.004;2023-08-20T09:20:57;4.20;;;3.80;;
15153;SDS011;7677;41.896;25.004;2023-08-20T09:23:28;4.65;;;4.20;;
15153;SDS011;7677;41.896;25.004;2023-08-20T09:25:55;4.47;;;4.07;;
15153;SDS011;7677;41.896;25.004;2023-08-20T09:28:23;6.57;;;4.07;;
15153;SDS011;7677;41.896;25.004;2023-08-20T09:30:58;4.68;;;3.92;;
15153;SDS011;7677;41.896;25.004;2023-08-20T09:33:27;4.88;;;4.20;;
15153;SDS011;7677;41.896;25.004;2023-08-20T09:35:54;6.63;;;3.92;;
15153;SDS011;7677;41.896;25.004;2023-08-20T09:38:22;4.53;;;4.13;;
15153;SDS011;7677;41.896;25.004;2023-08-20T09:40:51;5.10;;;4.43;;
15153;SDS011;7677;41.896;25.004;2023-08-20T09:43:21;5.18;;;4.32;;
15153;SDS011;7677;41.896;25.004;2023-08-20T09:45:51;5.50;;;4.03;;
15153;SDS011;7677;41.896;25.004;2023-08-20T09:48:22;6.72;;;3.75;;
15153;SDS011;7677;41.896;25.004;2023-08-20T09:50:51;6.47;;;3.78;;
15153;SDS011;7677;41.896;25.004;2023-08-20T09:53:21;5.95;;;3.80;;
15153;SDS011;7677;41.896;25.004;2023-08-20T09:55:50;5.53;;;3.75;;
15153;SDS011;7677;41.896;25.004;2023-08-20T09:58:20;5.47;;;4.13;;
15153;SDS011;7677;41.896;25.004;2023-08-20T10:00:50;5.10;;;3.40;;
15153;SDS011;7677;41.896;25.004;2023-08-20T10:03:18;4.13;;;3.67;;
15153;SDS011;7677;41.896;25.004;2023-08-20T10:05:47;5.55;;;4.07;;
15153;SDS011;7677;41.896;25.004;2023-08-20T10:08:15;6.38;;;4.22;;
15153;SDS011;7677;41.896;25.004;2023-08-20T10:10:42;4.95;;;4.32;;
15153;SDS011;7677;41.896;25.004;2023-08-20T10:13:09;5.20;;;3.63;;
15153;SDS011;7677;41.896;25.004;2023-08-20T10:15:36;4.40;;;3.90;;
15153;SDS011;7677;41.896;25.004;2023-08-20T10:18:03;4.88;;;3.90;;
15153;SDS011;7677;41.896;25.004;2023-08-20T10:20:31;4.82;;;3.70;;
15153;SDS011;7677;41.896;25.004;2023-08-20T10:23:02;4.65;;;4.15;;
15153;SDS011;7677;41.896;25.004;2023-08-20T10:25:30;4.07;;;3.67;;
15153;SDS011;7677;41.896;25.004;2023-08-20T10:28:10;4.82;;;4.13;;
15153;SDS011;7677;41.896;25.004;2023-08-20T10:30:38;5.32;;;3.80;;
15153;SDS011;7677;41.896;25.004;2023-08-20T10:33:05;4.13;;;3.72;;
15153;SDS011;7677;41.896;25.004;2023-08-20T10:35:46;4.43;;;4.03;;
15153;SDS011;7677;41.896;25.004;2023-08-20T10:38:16;4.53;;;4.13;;
15153;SDS011;7677;41.896;25.004;2023-08-20T10:40:47;4.45;;;3.90;;
15153;SDS011;7677;41.896;25.004;2023-08-20T10:43:27;4.47;;;4.03;;
15153;SDS011;7677;41.896;25.004;2023-08-20T10:48:50;4.72;;;3.90;;
15153;SDS011;7677;41.896;25.004;2023-08-20T10:51:18;4.35;;;3.90;;
15153;SDS011;7677;41.896;25.004;2023-08-20T10:54:01;4.18;;;3.78;;
15153;SDS011;7677;41.896;25.004;2023-08-20T10:56:39;5.18;;;3.83;;
15153;SDS011;7677;41.896;25.004;2023-08-20T10:59:08;5.13;;;3.30;;
15153;SDS011;7677;41.896;25.004;2023-08-20T11:01:36;3.78;;;3.38;;
15153;SDS011;7677;41.896;25.004;2023-08-20T11:04:04;6.10;;;3.70;;
15153;SDS011;7677;41.896;25.004;2023-08-20T11:06:32;5.47;;;3.75;;
15153;SDS011;7677;41.896;25.004;2023-08-20T11:09:01;4.05;;;3.58;;
15153;SDS011;7677;41.896;25.004;2023-08-20T11:11:30;4.28;;;3.30;;
15153;SDS011;7677;41.896;25.004;2023-08-20T11:14:03;3.78;;;3.42;;
15153;SDS011;7677;41.896;25.004;2023-08-20T11:16:31;7.28;;;3.80;;
15153;SDS011;7677;41.896;25.004;2023-08-20T11:18:58;4.25;;;3.58;;
15153;SDS011;7677;41.896;25.004;2023-08-20T11:21:25;4.05;;;3.65;;
15153;SDS011;7677;41.896;25.004;2023-08-20T11:23:53;4.75;;;3.55;;
15153;SDS011;7677;41.896;25.004;2023-08-20T11:26:22;4.40;;;3.45;;
15153;SDS011;7677;41.896;25.004;2023-08-20T11:28:49;4.07;;;3.22;;
15153;SDS011;7677;41.896;25.004;2023-08-20T11:31:16;4.22;;;3.65;;
15153;SDS011;7677;41.896;25.004;2023-08-20T11:33:43;6.88;;;3.42;;
15153;SDS011;7677;41.896;25.004;2023-08-20T11:36:10;5.72;;;3.60;;
15153;SDS011;7677;41.896;25.004;2023-08-20T11:38:37;3.70;;;3.25;;
15153;SDS011;7677;41.896;25.004;2023-08-20T11:41:04;5.45;;;3.65;;
15153;SDS011;7677;41.896;25.004;2023-08-20T11:43:33;4.07;;;3.65;;
15153;SDS011;7677;41.896;25.004;2023-08-20T11:46:00;3.85;;;3.47;;
15153;SDS011;7677;41.896;25.004;2023-08-20T11:48:27;4.40;;;3.33;;
15153;SDS011;7677;41.896;25.004;2023-08-20T11:50:55;4.82;;;3.80;;
15153;SDS011;7677;41.896;25.004;2023-08-20T11:53:23;3.65;;;3.35;;
15153;SDS011;7677;41.896;25.004;2023-08-20T11:55:50;3.65;;;3.30;;
15153;SDS011;7677;41.896;25.004;2023-08-20T11:58:18;3.72;;;3.10;;
15153;SDS011;7677;41.896;25.004;2023-08-20T12:00:47;3.97;;;3.20;;
15153;SDS011;7677;41.896;25.004;2023-08-20T12:03:15;4.43;;;3.38;;
15153;SDS011;7677;41.896;25.004;2023-08-20T12:05:42;3.15;;;2.85;;
15153;SDS011;7677;41.896;25.004;2023-08-20T12:08:14;4.18;;;3.40;;
15153;SDS011;7677;41.896;25.004;2023-08-20T12:10:41;4.47;;;3.35;;
15153;SDS011;7677;41.896;25.004;2023-08-20T12:13:09;3.42;;;3.13;;
15153;SDS011;7677;41.896;25.004;2023-08-20T12:15:36;4.55;;;2.83;;
15153;SDS011;7677;41.896;25.004;2023-08-20T12:18:05;4.00;;;3.60;;
15153;SDS011;7677;41.896;25.004;2023-08-20T12:20:34;3.75;;;3.45;;
15153;SDS011;7677;41.896;25.004;2023-08-20T12:23:02;3.80;;;3.40;;
15153;SDS011;7677;41.896;25.004;2023-08-20T12:25:30;3.17;;;2.88;;
15153;SDS011;7677;41.896;25.004;2023-08-20T12:27:59;3.55;;;3.10;;
15153;SDS011;7677;41.896;25.004;2023-08-20T12:30:26;5.85;;;3.35;;
15153;SDS011;7677;41.896;25.004;2023-08-20T12:32:53;3.88;;;3.17;;
15153;SDS011;7677;41.896;25.004;2023-08-20T12:35:22;3.95;;;3.55;;
15153;SDS011;7677;41.896;25.004;2023-08-20T12:37:49;3.35;;;2.85;;
15153;SDS011;7677;41.896;25.004;2023-08-20T12:40:16;3.55;;;3.22;;
15153;SDS011;7677;41.896;25.004;2023-08-20T12:42:43;2.85;;;2.65;;
15153;SDS011;7677;41.896;25.004;2023-08-20T12:45:10;3.45;;;3.08;;
15153;SDS011;7677;41.896;25.004;2023-08-20T12:47:38;3.40;;;3.10;;
15153;SDS011;7677;41.896;25.004;2023-08-20T12:50:06;4.32;;;3.30;;
15153;SDS011;7677;41.896;25.004;2023-08-20T12:52:34;4.13;;;3.30;;
15153;SDS011;7677;41.896;25.004;2023-08-20T12:55:01;3.97;;;3.42;;
15153;SDS011;7677;41.896;25.004;2023-08-20T12:57:29;3.05;;;2.80;;
15153;SDS011;7677;41.896;25.004;2023-08-20T12:59:56;3.97;;;3.40;;
15153;SDS011;7677;41.896;25.004;2023-08-20T13:02:24;3.63;;;3.20;;
15153;SDS011;7677;41.896;25.004;2023-08-20T13:04:52;3.90;;;3.10;;
15153;SDS011;7677;41.896;25.004;2023-08-20T13:07:19;4.72;;;3.58;;
15153;SDS011;7677;41.896;25.004;2023-08-20T13:09:48;3.38;;;3.08;;
15153;SDS011;7677;41.896;25.004;2023-08-20T13:12:16;2.95;;;2.65;;
15153;SDS011;7677;41.896;25.004;2023-08-20T13:14:44;3.17;;;2.92;;
15153;SDS011;7677;41.896;25.004;2023-08-20T13:17:12;3.75;;;3.08;;
15153;SDS011;7677;41.896;25.004;2023-08-20T13:19:39;4.65;;;2.88;;
15153;SDS011;7677;41.896;25.004;2023-08-20T13:22:06;3.58;;;3.13;;
15153;SDS011;7677;41.896;25.004;2023-08-20T13:24:33;5.53;;;3.35;;
15153;SDS011;7677;41.896;25.004;2023-08-20T13:27:02;5.32;;;3.92;;
15153;SDS011;7677;41.896;25.004;2023-08-20T13:29:29;3.53;;;3.10;;
15153;SDS011;7677;41.896;25.004;2023-08-20T13:31:56;5.00;;;3.65;;
15153;SDS011;7677;41.896;25.004;2023-08-20T13:34:23;4.47;;;3.30;;
15153;SDS011;7677;41.896;25.004;2023-08-20T13:36:50;3.50;;;3.20;;
15153;SDS011;7677;41.896;25.004;2023-08-20T13:39:17;3.90;;;3.10;;
15153;SDS011;7677;41.896;25.004;2023-08-20T13:41:46;3.53;;;3.17;;
15153;SDS011;7677;41.896;25.004;2023-08-20T13:44:16;3.42;;;3.03;;
15153;SDS011;7677;41.896;25.004;2023-08-20T13:46:43;3.42;;;3.10;;
15153;SDS011;7677;41.896;25.004;2023-08-20T13:49:10;3.50;;;3.20;;
15153;SDS011;7677;41.896;25.004;2023-08-20T13:51:37;4.25;;;3.67;;
15153;SDS011;7677;41.896;25.004;2023-08-20T13:54:04;4.05;;;2.80;;
15153;SDS011;7677;41.896;25.004;2023-08-20T13:56:31;3.97;;;3.25;;
15153;SDS011;7677;41.896;25.004;2023-08-20T13:58:58;3.80;;;3.50;;
15153;SDS011;7677;41.896;25.004;2023-08-20T14:01:27;4.18;;;3.75;;
15153;SDS011;7677;41.896;25.004;2023-08-20T14:03:54;4.28;;;3.50;;
15153;SDS011;7677;41.896;25.004;2023-08-20T14:06:21;3.55;;;3.13;;
15153;SDS011;7677;41.896;25.004;2023-08-20T14:08:48;3.45;;;3.08;;
15153;SDS011;7677;41.896;25.004;2023-08-20T14:11:15;4.25;;;3.05;;
15153;SDS011;7677;41.896;25.004;2023-08-20T14:13:42;9.25;;;3.60;;
15153;SDS011;7677;41.896;25.004;2023-08-20T14:16:09;3.40;;;2.92;;
15153;SDS011;7677;41.896;25.004;2023-08-20T14:18:37;5.57;;;3.72;;
15153;SDS011;7677;41.896;25.004;2023-08-20T14:21:04;4.13;;;3.40;;
15153;SDS011;7677;41.896;25.004;2023-08-20T14:23:31;6.30;;;3.47;;
15153;SDS011;7677;41.896;25.004;2023-08-20T14:25:58;5.40;;;3.53;;
15153;SDS011;7677;41.896;25.004;2023-08-20T14:28:25;4.22;;;3.55;;
15153;SDS011;7677;41.896;25.004;2023-08-20T14:30:52;3.40;;;3.10;;
15153;SDS011;7677;41.896;25.004;2023-08-20T14:33:20;3.55;;;3.25;;
15153;SDS011;7677;41.896;25.004;2023-08-20T14:35:48;7.55;;;3.97;;
15153;SDS011;7677;41.896;25.004;2023-08-20T14:38:16;4.25;;;3.63;;
15153;SDS011;7677;41.896;25.004;2023-08-20T14:40:43;5.13;;;2.90;;
15153;SDS011;7677;41.896;25.004;2023-08-20T14:43:10;3.60;;;3.25;;
15153;SDS011;7677;41.896;25.004;2023-08-20T14:45:37;5.75;;;3.45;;
15153;SDS011;7677;41.896;25.004;2023-08-20T14:48:04;3.83;;;3.50;;
15153;SDS011;7677;41.896;25.004;2023-08-20T14:50:31;5.30;;;3.80;;
15153;SDS011;7677;41.896;25.004;2023-08-20T14:53:00;3.53;;;3.22;;
15153;SDS011;7677;41.896;25.004;2023-08-20T14:55:27;3.97;;;3.00;;
15153;SDS011;7677;41.896;25.004;2023-08-20T14:57:54;4.22;;;3.33;;